sensor_id;sensor_type;location;lat;lon;timestamp;temperature;humidity
10968;DHT22;5536;49.602;10.980;2023-04-20T00:01:39;4.80;99.90
10968;DHT22;5536;49.602;10.980;2023-04-20T00:04:07;4.90;99.90
10968;DHT22;5536;49.602;10.980;2023-04-20T00:06:34;4.60;99.90
10968;DHT22;5536;49.602;10.980;2023-04-20T00:09:02;4.30;99.90
10968;DHT22;5536;49.602;10.980;2023-04-20T00:11:30;4.10;99.90
10968;DHT22;5536;49.602;10.980;2023-04-20T00:13:57;4.20;99.90
10968;DHT22;5536;49.602;10.980;2023-04-20T00:16:24;4.20;99.90
10968;DHT22;5536;49.602;10.980;2023-04-20T00:18:51;4.10;99.90
10968;DHT22;5536;49.602;10.980;2023-04-20T00:21:18;4.40;99.90
10968;DHT22;5536;49.602;10.980;2023-04-20T00:23:48;4.60;99.90
10968;DHT22;5536;49.602;10.980;2023-04-20T00:26:17;4.80;99.90
10968;DHT22;5536;49.602;10.980;2023-04-20T00:28:45;4.60;99.90
10968;DHT22;5536;49.602;10.980;2023-04-20T00:31:12;4.50;99.90
10968;DHT22;5536;49.602;10.980;2023-04-20T00:33:39;4.60;99.90
10968;DHT22;5536;49.602;10.980;2023-04-20T00:36:07;4.50;99.90
10968;DHT22;5536;49.602;10.980;2023-04-20T00:38:34;4.60;99.90
10968;DHT22;5536;49.602;10.980;2023-04-20T00:41:02;4.50;99.90
10968;DHT22;5536;49.602;10.980;2023-04-20T00:43:30;4.40;99.90
10968;DHT22;5536;49.602;10.980;2023-04-20T00:45:57;4.60;99.90
10968;DHT22;5536;49.602;10.980;2023-04-20T00:48:24;4.50;99.90
10968;DHT22;5536;49.602;10.980;2023-04-20T00:50:51;4.10;99.90
10968;DHT22;5536;49.602;10.980;2023-04-20T00:53:18;4.00;99.90
10968;DHT22;5536;49.602;10.980;2023-04-20T00:55:46;3.90;99.90
10968;DHT22;5536;49.602;10.980;2023-04-20T00:58:13;3.90;99.90
10968;DHT22;5536;49.602;10.980;2023-04-20T01:00:41;3.80;99.90
10968;DHT22;5536;49.602;10.980;2023-04-20T01:03:09;3.70;99.90
10968;DHT22;5536;49.602;10.980;2023-04-20T01:05:36;3.60;99.90
10968;DHT22;5536;49.602;10.980;2023-04-20T01:08:03;3.60;99.90
10968;DHT22;5536;49.602;10.980;2023-04-20T01:10:31;3.50;99.90
10968;DHT22;5536;49.602;10.980;2023-04-20T01:12:58;3.50;99.90
10968;DHT22;5536;49.602;10.980;2023-04-20T01:15:25;3.50;99.90
10968;DHT22;5536;49.602;10.980;2023-04-20T01:17:53;3.50;99.90
10968;DHT22;5536;49.602;10.980;2023-04-20T01:20:22;3.60;99.90
10968;DHT22;5536;49.602;10.980;2023-04-20T01:22:51;3.50;99.90
10968;DHT22;5536;49.602;10.980;2023-04-20T01:25:20;3.50;99.90
10968;DHT22;5536;49.602;10.980;2023-04-20T01:27:47;3.50;99.90
10968;DHT22;5536;49.602;10.980;2023-04-20T01:30:14;3.40;99.90
10968;DHT22;5536;49.602;10.980;2023-04-20T01:32:42;3.40;99.90
10968;DHT22;5536;49.602;10.980;2023-04-20T01:35:09;3.40;99.90
10968;DHT22;5536;49.602;10.980;2023-04-20T01:37:37;3.40;99.90
10968;DHT22;5536;49.602;10.980;2023-04-20T01:40:08;3.40;99.90
10968;DHT22;5536;49.602;10.980;2023-04-20T01:42:35;3.40;99.90
10968;DHT22;5536;49.602;10.980;2023-04-20T01:45:04;3.30;99.90
10968;DHT22;5536;49.602;10.980;2023-04-20T01:47:32;3.30;99.90
10968;DHT22;5536;49.602;10.980;2023-04-20T01:50:00;3.30;99.90
10968;DHT22;5536;49.602;10.980;2023-04-20T01:52:27;3.30;99.90
10968;DHT22;5536;49.602;10.980;2023-04-20T01:54:54;3.30;99.90
10968;DHT22;5536;49.602;10.980;2023-04-20T01:57:22;3.30;99.90
10968;DHT22;5536;49.602;10.980;2023-04-20T01:59:49;3.30;99.90
10968;DHT22;5536;49.602;10.980;2023-04-20T02:02:16;3.30;99.90
10968;DHT22;5536;49.602;10.980;2023-04-20T02:04:43;3.60;99.90
10968;DHT22;5536;49.602;10.980;2023-04-20T02:07:10;3.90;99.90
10968;DHT22;5536;49.602;10.980;2023-04-20T02:09:37;4.00;99.90
10968;DHT22;5536;49.602;10.980;2023-04-20T02:12:05;4.10;99.90
10968;DHT22;5536;49.602;10.980;2023-04-20T02:14:33;3.80;99.90
10968;DHT22;5536;49.602;10.980;2023-04-20T02:17:01;3.90;99.90
10968;DHT22;5536;49.602;10.980;2023-04-20T02:19:28;4.10;99.90
10968;DHT22;5536;49.602;10.980;2023-04-20T02:21:55;3.90;99.90
10968;DHT22;5536;49.602;10.980;2023-04-20T02:24:22;3.70;99.90
10968;DHT22;5536;49.602;10.980;2023-04-20T02:26:49;3.60;99.90
10968;DHT22;5536;49.602;10.980;2023-04-20T02:29:16;3.50;99.90
10968;DHT22;5536;49.602;10.980;2023-04-20T02:31:45;3.50;99.90
10968;DHT22;5536;49.602;10.980;2023-04-20T02:34:12;3.40;99.90
10968;DHT22;5536;49.602;10.980;2023-04-20T02:36:39;3.60;99.90
10968;DHT22;5536;49.602;10.980;2023-04-20T02:39:06;3.80;99.90
10968;DHT22;5536;49.602;10.980;2023-04-20T02:41:34;3.80;99.90
10968;DHT22;5536;49.602;10.980;2023-04-20T02:44:01;3.50;99.90
10968;DHT22;5536;49.602;10.980;2023-04-20T02:46:28;3.40;99.90
10968;DHT22;5536;49.602;10.980;2023-04-20T02:48:57;3.30;99.90
10968;DHT22;5536;49.602;10.980;2023-04-20T02:51:24;3.40;99.90
10968;DHT22;5536;49.602;10.980;2023-04-20T02:53:51;3.40;99.90
10968;DHT22;5536;49.602;10.980;2023-04-20T02:56:18;3.40;99.90
10968;DHT22;5536;49.602;10.980;2023-04-20T02:58:46;3.30;99.90
10968;DHT22;5536;49.602;10.980;2023-04-20T03:01:16;3.40;99.90
10968;DHT22;5536;49.602;10.980;2023-04-20T03:03:43;3.30;99.90
10968;DHT22;5536;49.602;10.980;2023-04-20T03:06:12;3.20;99.90
10968;DHT22;5536;49.602;10.980;2023-04-20T03:08:39;3.10;99.90
10968;DHT22;5536;49.602;10.980;2023-04-20T03:11:06;3.10;99.90
10968;DHT22;5536;49.602;10.980;2023-04-20T03:13:33;3.00;99.90
10968;DHT22;5536;49.602;10.980;2023-04-20T03:16:00;2.90;99.90
10968;DHT22;5536;49.602;10.980;2023-04-20T03:18:28;2.90;99.90
10968;DHT22;5536;49.602;10.980;2023-04-20T03:20:55;3.10;99.90
10968;DHT22;5536;49.602;10.980;2023-04-20T03:23:23;3.00;99.90
10968;DHT22;5536;49.602;10.980;2023-04-20T03:25:51;2.80;99.90
10968;DHT22;5536;49.602;10.980;2023-04-20T03:28:18;2.70;99.90
10968;DHT22;5536;49.602;10.980;2023-04-20T03:30:45;2.60;99.90
10968;DHT22;5536;49.602;10.980;2023-04-20T03:33:12;2.50;99.90
10968;DHT22;5536;49.602;10.980;2023-04-20T03:35:39;2.50;99.90
10968;DHT22;5536;49.602;10.980;2023-04-20T03:38:07;2.40;99.90
10968;DHT22;5536;49.602;10.980;2023-04-20T03:40:45;2.40;99.90
10968;DHT22;5536;49.602;10.980;2023-04-20T03:43:12;2.40;99.90
10968;DHT22;5536;49.602;10.980;2023-04-20T03:45:39;2.40;99.90
10968;DHT22;5536;49.602;10.980;2023-04-20T03:48:06;2.40;99.90
10968;DHT22;5536;49.602;10.980;2023-04-20T03:50:33;2.50;99.90
10968;DHT22;5536;49.602;10.980;2023-04-20T03:53:00;2.50;99.90
10968;DHT22;5536;49.602;10.980;2023-04-20T03:55:27;2.70;99.90
10968;DHT22;5536;49.602;10.980;2023-04-20T03:57:56;3.00;99.90
10968;DHT22;5536;49.602;10.980;2023-04-20T04:00:23;3.20;99.90
10968;DHT22;5536;49.602;10.980;2023-04-20T04:02:50;3.40;99.90
10968;DHT22;5536;49.602;10.980;2023-04-20T04:05:17;3.30;99.90
10968;DHT22;5536;49.602;10.980;2023-04-20T04:07:44;3.40;99.90
10968;DHT22;5536;49.602;10.980;2023-04-20T04:10:12;3.40;99.90
10968;DHT22;5536;49.602;10.980;2023-04-20T04:12:39;3.30;99.90
10968;DHT22;5536;49.602;10.980;2023-04-20T04:15:09;3.00;99.90
10968;DHT22;5536;49.602;10.980;2023-04-20T04:17:36;3.20;99.90
10968;DHT22;5536;49.602;10.980;2023-04-20T04:20:04;3.40;99.90
10968;DHT22;5536;49.602;10.980;2023-04-20T04:22:33;3.50;99.90
10968;DHT22;5536;49.602;10.980;2023-04-20T04:25:00;3.50;99.90
10968;DHT22;5536;49.602;10.980;2023-04-20T04:27:28;3.60;99.90
10968;DHT22;5536;49.602;10.980;2023-04-20T04:29:59;3.40;99.90
10968;DHT22;5536;49.602;10.980;2023-04-20T04:32:28;3.40;99.90
10968;DHT22;5536;49.602;10.980;2023-04-20T04:34:55;3.40;99.90
10968;DHT22;5536;49.602;10.980;2023-04-20T04:37:25;3.30;99.90
10968;DHT22;5536;49.602;10.980;2023-04-20T04:39:52;3.30;99.90
10968;DHT22;5536;49.602;10.980;2023-04-20T04:42:20;3.00;99.90
10968;DHT22;5536;49.602;10.980;2023-04-20T04:44:47;3.00;99.90
10968;DHT22;5536;49.602;10.980;2023-04-20T04:47:13;3.00;99.90
10968;DHT22;5536;49.602;10.980;2023-04-20T04:49:43;3.00;99.90
10968;DHT22;5536;49.602;10.980;2023-04-20T04:52:10;3.20;99.90
10968;DHT22;5536;49.602;10.980;2023-04-20T04:54:38;3.30;99.90
10968;DHT22;5536;49.602;10.980;2023-04-20T04:57:05;3.30;99.90
10968;DHT22;5536;49.602;10.980;2023-04-20T04:59:32;3.50;99.90
10968;DHT22;5536;49.602;10.980;2023-04-20T05:01:59;3.60;99.90
10968;DHT22;5536;49.602;10.980;2023-04-20T05:04:26;3.40;99.90
10968;DHT22;5536;49.602;10.980;2023-04-20T05:06:54;3.30;99.90
10968;DHT22;5536;49.602;10.980;2023-04-20T05:09:21;3.40;99.90
10968;DHT22;5536;49.602;10.980;2023-04-20T05:11:48;3.30;99.90
10968;DHT22;5536;49.602;10.980;2023-04-20T05:14:15;3.40;99.90
10968;DHT22;5536;49.602;10.980;2023-04-20T05:16:42;3.60;99.90
10968;DHT22;5536;49.602;10.980;2023-04-20T05:19:09;3.80;99.90
10968;DHT22;5536;49.602;10.980;2023-04-20T05:21:37;3.90;99.90
10968;DHT22;5536;49.602;10.980;2023-04-20T05:24:07;4.10;99.90
10968;DHT22;5536;49.602;10.980;2023-04-20T05:26:34;4.10;99.90
10968;DHT22;5536;49.602;10.980;2023-04-20T05:29:01;4.20;99.90
10968;DHT22;5536;49.602;10.980;2023-04-20T05:31:29;4.30;99.90
10968;DHT22;5536;49.602;10.980;2023-04-20T05:33:58;4.30;99.90
10968;DHT22;5536;49.602;10.980;2023-04-20T05:36:26;4.40;99.90
10968;DHT22;5536;49.602;10.980;2023-04-20T05:38:54;4.00;99.90
10968;DHT22;5536;49.602;10.980;2023-04-20T05:41:22;4.10;99.90
10968;DHT22;5536;49.602;10.980;2023-04-20T05:43:51;4.20;99.90
10968;DHT22;5536;49.602;10.980;2023-04-20T05:46:19;4.10;99.90
10968;DHT22;5536;49.602;10.980;2023-04-20T05:48:46;4.20;99.90
10968;DHT22;5536;49.602;10.980;2023-04-20T05:51:13;4.40;99.90
10968;DHT22;5536;49.602;10.980;2023-04-20T05:53:40;4.60;99.90
10968;DHT22;5536;49.602;10.980;2023-04-20T05:56:07;4.60;99.90
10968;DHT22;5536;49.602;10.980;2023-04-20T05:58:36;4.40;99.90
10968;DHT22;5536;49.602;10.980;2023-04-20T06:01:03;4.50;99.90
10968;DHT22;5536;49.602;10.980;2023-04-20T06:03:31;4.60;99.90
10968;DHT22;5536;49.602;10.980;2023-04-20T06:05:58;4.70;99.90
10968;DHT22;5536;49.602;10.980;2023-04-20T06:08:25;4.70;99.90
10968;DHT22;5536;49.602;10.980;2023-04-20T06:10:53;4.70;99.90
10968;DHT22;5536;49.602;10.980;2023-04-20T06:13:21;4.90;99.90
10968;DHT22;5536;49.602;10.980;2023-04-20T06:15:50;4.90;99.90
10968;DHT22;5536;49.602;10.980;2023-04-20T06:18:17;4.90;99.90
10968;DHT22;5536;49.602;10.980;2023-04-20T06:20:44;4.90;99.90
10968;DHT22;5536;49.602;10.980;2023-04-20T06:23:11;5.00;99.90
10968;DHT22;5536;49.602;10.980;2023-04-20T06:25:38;5.10;99.90
10968;DHT22;5536;49.602;10.980;2023-04-20T06:28:06;5.10;99.90
10968;DHT22;5536;49.602;10.980;2023-04-20T06:30:33;5.20;99.90
10968;DHT22;5536;49.602;10.980;2023-04-20T06:33:02;5.20;99.90
10968;DHT22;5536;49.602;10.980;2023-04-20T06:35:29;5.30;99.90
10968;DHT22;5536;49.602;10.980;2023-04-20T06:37:56;5.40;99.90
10968;DHT22;5536;49.602;10.980;2023-04-20T06:40:25;5.50;99.90
10968;DHT22;5536;49.602;10.980;2023-04-20T06:42:52;5.60;99.90
10968;DHT22;5536;49.602;10.980;2023-04-20T06:45:20;5.70;99.90
10968;DHT22;5536;49.602;10.980;2023-04-20T06:47:47;5.80;99.90
10968;DHT22;5536;49.602;10.980;2023-04-20T06:50:15;5.90;99.90
10968;DHT22;5536;49.602;10.980;2023-04-20T06:52:42;6.10;99.90
10968;DHT22;5536;49.602;10.980;2023-04-20T06:55:10;6.30;99.90
10968;DHT22;5536;49.602;10.980;2023-04-20T06:57:37;6.40;99.90
10968;DHT22;5536;49.602;10.980;2023-04-20T07:00:09;6.60;99.90
10968;DHT22;5536;49.602;10.980;2023-04-20T07:02:44;6.70;99.90
10968;DHT22;5536;49.602;10.980;2023-04-20T07:05:11;6.80;99.90
10968;DHT22;5536;49.602;10.980;2023-04-20T07:07:40;6.90;99.90
10968;DHT22;5536;49.602;10.980;2023-04-20T07:10:08;7.00;99.90
10968;DHT22;5536;49.602;10.980;2023-04-20T07:12:36;7.10;99.90
10968;DHT22;5536;49.602;10.980;2023-04-20T07:15:05;7.20;99.90
10968;DHT22;5536;49.602;10.980;2023-04-20T07:17:32;7.20;99.90
10968;DHT22;5536;49.602;10.980;2023-04-20T07:20:00;7.30;99.90
10968;DHT22;5536;49.602;10.980;2023-04-20T07:22:31;7.50;99.90
10968;DHT22;5536;49.602;10.980;2023-04-20T07:25:01;7.60;99.90
10968;DHT22;5536;49.602;10.980;2023-04-20T07:27:28;7.70;99.90
10968;DHT22;5536;49.602;10.980;2023-04-20T07:29:58;7.70;99.90
10968;DHT22;5536;49.602;10.980;2023-04-20T07:32:25;7.80;99.90
10968;DHT22;5536;49.602;10.980;2023-04-20T07:34:52;7.90;99.90
10968;DHT22;5536;49.602;10.980;2023-04-20T07:37:19;7.90;99.90
10968;DHT22;5536;49.602;10.980;2023-04-20T07:39:46;8.00;99.90
10968;DHT22;5536;49.602;10.980;2023-04-20T07:42:15;8.10;99.90
10968;DHT22;5536;49.602;10.980;2023-04-20T07:44:42;8.10;99.90
10968;DHT22;5536;49.602;10.980;2023-04-20T07:47:09;8.10;99.90
10968;DHT22;5536;49.602;10.980;2023-04-20T07:49:36;8.10;99.90
10968;DHT22;5536;49.602;10.980;2023-04-20T07:52:05;8.10;99.90
10968;DHT22;5536;49.602;10.980;2023-04-20T07:54:32;8.30;99.90
10968;DHT22;5536;49.602;10.980;2023-04-20T07:56:59;8.30;99.90
10968;DHT22;5536;49.602;10.980;2023-04-20T07:59:29;8.40;99.90
10968;DHT22;5536;49.602;10.980;2023-04-20T08:02:01;8.40;99.90
10968;DHT22;5536;49.602;10.980;2023-04-20T08:04:29;8.20;99.90
10968;DHT22;5536;49.602;10.980;2023-04-20T08:06:56;8.20;99.90
10968;DHT22;5536;49.602;10.980;2023-04-20T08:09:23;8.10;99.90
10968;DHT22;5536;49.602;10.980;2023-04-20T08:11:51;8.10;99.90
10968;DHT22;5536;49.602;10.980;2023-04-20T08:14:18;8.20;99.90
10968;DHT22;5536;49.602;10.980;2023-04-20T08:16:46;8.40;99.90
10968;DHT22;5536;49.602;10.980;2023-04-20T08:19:13;8.60;99.90
10968;DHT22;5536;49.602;10.980;2023-04-20T08:21:41;8.70;99.90
10968;DHT22;5536;49.602;10.980;2023-04-20T08:24:09;8.80;99.90
10968;DHT22;5536;49.602;10.980;2023-04-20T08:26:38;8.90;99.90
10968;DHT22;5536;49.602;10.980;2023-04-20T08:29:05;9.00;99.90
10968;DHT22;5536;49.602;10.980;2023-04-20T08:31:32;9.00;99.90
10968;DHT22;5536;49.602;10.980;2023-04-20T08:34:01;9.10;99.90
10968;DHT22;5536;49.602;10.980;2023-04-20T08:36:28;9.10;99.90
10968;DHT22;5536;49.602;10.980;2023-04-20T08:39:04;9.20;99.90
10968;DHT22;5536;49.602;10.980;2023-04-20T08:41:32;9.10;99.90
10968;DHT22;5536;49.602;10.980;2023-04-20T08:43:59;9.00;99.90
10968;DHT22;5536;49.602;10.980;2023-04-20T08:46:26;9.10;99.90
10968;DHT22;5536;49.602;10.980;2023-04-20T08:48:53;9.20;99.90
10968;DHT22;5536;49.602;10.980;2023-04-20T08:51:23;9.30;99.90
10968;DHT22;5536;49.602;10.980;2023-04-20T08:53:50;9.30;99.90
10968;DHT22;5536;49.602;10.980;2023-04-20T08:56:18;9.40;99.90
10968;DHT22;5536;49.602;10.980;2023-04-20T08:58:46;9.50;99.90
10968;DHT22;5536;49.602;10.980;2023-04-20T09:01:13;9.50;99.90
10968;DHT22;5536;49.602;10.980;2023-04-20T09:03:41;9.50;99.90
10968;DHT22;5536;49.602;10.980;2023-04-20T09:06:14;9.40;99.90
10968;DHT22;5536;49.602;10.980;2023-04-20T09:08:44;9.40;99.90
10968;DHT22;5536;49.602;10.980;2023-04-20T09:11:22;9.40;99.90
10968;DHT22;5536;49.602;10.980;2023-04-20T09:13:59;9.40;99.90
10968;DHT22;5536;49.602;10.980;2023-04-20T09:16:27;9.50;99.90
10968;DHT22;5536;49.602;10.980;2023-04-20T09:18:55;9.60;99.90
10968;DHT22;5536;49.602;10.980;2023-04-20T09:21:24;9.80;99.90
10968;DHT22;5536;49.602;10.980;2023-04-20T09:24:00;9.90;99.90
10968;DHT22;5536;49.602;10.980;2023-04-20T09:26:31;10.00;99.90
10968;DHT22;5536;49.602;10.980;2023-04-20T09:28:59;9.90;99.90
10968;DHT22;5536;49.602;10.980;2023-04-20T09:31:26;9.90;99.90
10968;DHT22;5536;49.602;10.980;2023-04-20T09:33:57;10.00;99.90
10968;DHT22;5536;49.602;10.980;2023-04-20T09:36:34;9.90;99.90
10968;DHT22;5536;49.602;10.980;2023-04-20T09:39:08;10.00;99.90
10968;DHT22;5536;49.602;10.980;2023-04-20T09:41:36;10.10;99.90
10968;DHT22;5536;49.602;10.980;2023-04-20T09:44:05;10.10;99.90
10968;DHT22;5536;49.602;10.980;2023-04-20T09:46:34;10.10;99.90
10968;DHT22;5536;49.602;10.980;2023-04-20T09:49:04;10.30;99.90
10968;DHT22;5536;49.602;10.980;2023-04-20T09:51:33;10.20;99.90
10968;DHT22;5536;49.602;10.980;2023-04-20T09:54:02;10.40;99.90
10968;DHT22;5536;49.602;10.980;2023-04-20T09:56:32;10.50;99.90
10968;DHT22;5536;49.602;10.980;2023-04-20T09:59:00;10.40;99.90
10968;DHT22;5536;49.602;10.980;2023-04-20T10:01:29;10.50;99.90
10968;DHT22;5536;49.602;10.980;2023-04-20T10:03:59;10.80;99.90
10968;DHT22;5536;49.602;10.980;2023-04-20T10:06:29;10.80;99.90
10968;DHT22;5536;49.602;10.980;2023-04-20T10:08:57;11.00;99.90
10968;DHT22;5536;49.602;10.980;2023-04-20T10:11:28;11.00;99.90
10968;DHT22;5536;49.602;10.980;2023-04-20T10:13:58;11.10;99.90
10968;DHT22;5536;49.602;10.980;2023-04-20T10:16:26;11.00;99.90
10968;DHT22;5536;49.602;10.980;2023-04-20T10:19:01;11.00;99.90
10968;DHT22;5536;49.602;10.980;2023-04-20T10:21:29;10.80;99.90
10968;DHT22;5536;49.602;10.980;2023-04-20T10:23:57;10.80;99.90
10968;DHT22;5536;49.602;10.980;2023-04-20T10:26:35;10.70;99.90
10968;DHT22;5536;49.602;10.980;2023-04-20T10:29:04;10.70;99.90
10968;DHT22;5536;49.602;10.980;2023-04-20T10:31:36;10.70;99.90
10968;DHT22;5536;49.602;10.980;2023-04-20T10:34:04;10.50;99.90
10968;DHT22;5536;49.602;10.980;2023-04-20T10:36:33;10.50;99.90
10968;DHT22;5536;49.602;10.980;2023-04-20T10:39:12;10.70;99.90
10968;DHT22;5536;49.602;10.980;2023-04-20T10:41:51;10.70;99.90
10968;DHT22;5536;49.602;10.980;2023-04-20T10:44:19;10.70;99.90
10968;DHT22;5536;49.602;10.980;2023-04-20T10:46:48;10.70;99.90
10968;DHT22;5536;49.602;10.980;2023-04-20T10:49:16;10.60;99.90
10968;DHT22;5536;49.602;10.980;2023-04-20T10:51:47;10.60;99.90
10968;DHT22;5536;49.602;10.980;2023-04-20T10:54:15;10.60;99.90
10968;DHT22;5536;49.602;10.980;2023-04-20T10:56:44;10.60;99.90
10968;DHT22;5536;49.602;10.980;2023-04-20T10:59:13;10.30;99.90
10968;DHT22;5536;49.602;10.980;2023-04-20T11:01:42;10.30;99.90
10968;DHT22;5536;49.602;10.980;2023-04-20T11:04:10;10.40;99.90
10968;DHT22;5536;49.602;10.980;2023-04-20T11:06:38;10.50;99.90
10968;DHT22;5536;49.602;10.980;2023-04-20T11:09:16;10.60;99.90
10968;DHT22;5536;49.602;10.980;2023-04-20T11:11:45;10.60;99.90
10968;DHT22;5536;49.602;10.980;2023-04-20T11:14:12;10.80;99.90
10968;DHT22;5536;49.602;10.980;2023-04-20T11:16:50;10.70;99.90
10968;DHT22;5536;49.602;10.980;2023-04-20T11:19:22;10.80;99.90
10968;DHT22;5536;49.602;10.980;2023-04-20T11:21:50;10.80;99.90
10968;DHT22;5536;49.602;10.980;2023-04-20T11:24:17;10.60;99.90
10968;DHT22;5536;49.602;10.980;2023-04-20T11:26:46;10.60;99.90
10968;DHT22;5536;49.602;10.980;2023-04-20T11:29:26;10.70;99.90
10968;DHT22;5536;49.602;10.980;2023-04-20T11:31:55;10.80;99.90
10968;DHT22;5536;49.602;10.980;2023-04-20T11:34:23;10.70;99.90
10968;DHT22;5536;49.602;10.980;2023-04-20T11:36:50;10.70;99.90
10968;DHT22;5536;49.602;10.980;2023-04-20T11:39:22;10.80;99.90
10968;DHT22;5536;49.602;10.980;2023-04-20T11:41:50;11.00;99.90
10968;DHT22;5536;49.602;10.980;2023-04-20T11:44:18;11.20;99.90
10968;DHT22;5536;49.602;10.980;2023-04-20T11:46:46;11.80;99.90
10968;DHT22;5536;49.602;10.980;2023-04-20T11:49:16;12.10;99.90
10968;DHT22;5536;49.602;10.980;2023-04-20T11:51:44;12.50;99.90
10968;DHT22;5536;49.602;10.980;2023-04-20T11:54:12;12.60;99.90
10968;DHT22;5536;49.602;10.980;2023-04-20T11:56:39;12.20;99.90
10968;DHT22;5536;49.602;10.980;2023-04-20T11:59:09;12.30;99.90
10968;DHT22;5536;49.602;10.980;2023-04-20T12:01:37;12.30;99.90
10968;DHT22;5536;49.602;10.980;2023-04-20T12:04:04;12.00;99.90
10968;DHT22;5536;49.602;10.980;2023-04-20T12:06:33;12.10;99.90
10968;DHT22;5536;49.602;10.980;2023-04-20T12:09:00;11.90;99.90
10968;DHT22;5536;49.602;10.980;2023-04-20T12:11:30;11.80;99.90
10968;DHT22;5536;49.602;10.980;2023-04-20T12:13:58;11.60;99.90
10968;DHT22;5536;49.602;10.980;2023-04-20T12:16:25;11.40;99.90
10968;DHT22;5536;49.602;10.980;2023-04-20T12:18:52;11.10;99.90
10968;DHT22;5536;49.602;10.980;2023-04-20T12:21:20;10.90;99.90
10968;DHT22;5536;49.602;10.980;2023-04-20T12:23:48;10.70;99.90
10968;DHT22;5536;49.602;10.980;2023-04-20T12:26:16;10.60;99.90
10968;DHT22;5536;49.602;10.980;2023-04-20T12:28:43;10.50;99.90
10968;DHT22;5536;49.602;10.980;2023-04-20T12:31:10;10.30;99.90
10968;DHT22;5536;49.602;10.980;2023-04-20T12:33:37;10.40;99.90
10968;DHT22;5536;49.602;10.980;2023-04-20T12:36:05;10.10;99.90
10968;DHT22;5536;49.602;10.980;2023-04-20T12:38:32;9.90;99.90
10968;DHT22;5536;49.602;10.980;2023-04-20T12:41:00;9.80;99.90
10968;DHT22;5536;49.602;10.980;2023-04-20T12:43:29;9.70;99.90
10968;DHT22;5536;49.602;10.980;2023-04-20T12:45:56;9.80;99.90
10968;DHT22;5536;49.602;10.980;2023-04-20T12:48:23;9.70;99.90
10968;DHT22;5536;49.602;10.980;2023-04-20T12:50:51;9.70;99.90
10968;DHT22;5536;49.602;10.980;2023-04-20T12:53:18;9.60;99.90
10968;DHT22;5536;49.602;10.980;2023-04-20T12:55:45;9.60;99.90
10968;DHT22;5536;49.602;10.980;2023-04-20T12:58:14;9.70;99.90
10968;DHT22;5536;49.602;10.980;2023-04-20T13:00:42;9.80;99.90
10968;DHT22;5536;49.602;10.980;2023-04-20T13:03:10;9.90;99.90
10968;DHT22;5536;49.602;10.980;2023-04-20T13:05:37;9.90;99.90
10968;DHT22;5536;49.602;10.980;2023-04-20T13:08:05;9.90;99.90
10968;DHT22;5536;49.602;10.980;2023-04-20T13:10:34;9.90;99.90
10968;DHT22;5536;49.602;10.980;2023-04-20T13:13:03;9.90;99.90
10968;DHT22;5536;49.602;10.980;2023-04-20T13:15:31;10.00;99.90
10968;DHT22;5536;49.602;10.980;2023-04-20T13:17:59;10.00;99.90
10968;DHT22;5536;49.602;10.980;2023-04-20T13:20:26;10.00;99.90
10968;DHT22;5536;49.602;10.980;2023-04-20T13:22:54;10.00;99.90
10968;DHT22;5536;49.602;10.980;2023-04-20T13:25:23;9.90;99.90
10968;DHT22;5536;49.602;10.980;2023-04-20T13:27:52;10.00;99.90
10968;DHT22;5536;49.602;10.980;2023-04-20T13:30:19;9.90;99.90
10968;DHT22;5536;49.602;10.980;2023-04-20T13:32:48;9.90;99.90
10968;DHT22;5536;49.602;10.980;2023-04-20T13:35:16;9.90;99.90
10968;DHT22;5536;49.602;10.980;2023-04-20T13:37:44;9.90;99.90
10968;DHT22;5536;49.602;10.980;2023-04-20T13:40:12;9.90;99.90
10968;DHT22;5536;49.602;10.980;2023-04-20T13:42:39;10.00;99.90
10968;DHT22;5536;49.602;10.980;2023-04-20T13:45:07;10.00;99.90
10968;DHT22;5536;49.602;10.980;2023-04-20T13:47:36;10.00;99.90
10968;DHT22;5536;49.602;10.980;2023-04-20T13:50:06;10.00;99.90
10968;DHT22;5536;49.602;10.980;2023-04-20T13:52:33;10.20;99.90
10968;DHT22;5536;49.602;10.980;2023-04-20T13:55:00;10.20;99.90
10968;DHT22;5536;49.602;10.980;2023-04-20T13:57:27;10.30;99.90
10968;DHT22;5536;49.602;10.980;2023-04-20T13:59:56;10.40;99.90
10968;DHT22;5536;49.602;10.980;2023-04-20T14:02:23;10.60;99.90
10968;DHT22;5536;49.602;10.980;2023-04-20T14:04:51;10.70;99.90
10968;DHT22;5536;49.602;10.980;2023-04-20T14:07:20;10.80;99.90
10968;DHT22;5536;49.602;10.980;2023-04-20T14:09:47;10.70;99.90
10968;DHT22;5536;49.602;10.980;2023-04-20T14:12:15;10.70;99.90
10968;DHT22;5536;49.602;10.980;2023-04-20T14:14:42;10.70;99.90
10968;DHT22;5536;49.602;10.980;2023-04-20T14:17:10;10.70;99.90
10968;DHT22;5536;49.602;10.980;2023-04-20T14:19:37;10.60;99.90
10968;DHT22;5536;49.602;10.980;2023-04-20T14:22:04;10.70;99.90
10968;DHT22;5536;49.602;10.980;2023-04-20T14:24:32;10.80;99.90
10968;DHT22;5536;49.602;10.980;2023-04-20T14:26:59;10.80;99.90
10968;DHT22;5536;49.602;10.980;2023-04-20T14:29:27;10.60;99.90
10968;DHT22;5536;49.602;10.980;2023-04-20T14:31:54;10.60;99.90
10968;DHT22;5536;49.602;10.980;2023-04-20T14:34:21;10.60;99.90
10968;DHT22;5536;49.602;10.980;2023-04-20T14:36:48;10.70;99.90
10968;DHT22;5536;49.602;10.980;2023-04-20T14:39:17;10.70;99.90
10968;DHT22;5536;49.602;10.980;2023-04-20T14:41:45;10.70;99.90
10968;DHT22;5536;49.602;10.980;2023-04-20T14:44:13;10.60;99.90
10968;DHT22;5536;49.602;10.980;2023-04-20T14:46:40;10.40;99.90
10968;DHT22;5536;49.602;10.980;2023-04-20T14:49:07;10.30;99.90
10968;DHT22;5536;49.602;10.980;2023-04-20T14:51:35;10.30;99.90
10968;DHT22;5536;49.602;10.980;2023-04-20T14:54:02;10.30;99.90
10968;DHT22;5536;49.602;10.980;2023-04-20T14:56:29;10.30;99.90
10968;DHT22;5536;49.602;10.980;2023-04-20T14:58:57;10.40;99.90
10968;DHT22;5536;49.602;10.980;2023-04-20T15:01:25;10.40;99.90
10968;DHT22;5536;49.602;10.980;2023-04-20T15:03:52;10.30;99.90
10968;DHT22;5536;49.602;10.980;2023-04-20T15:06:19;10.50;99.90
10968;DHT22;5536;49.602;10.980;2023-04-20T15:08:46;10.60;99.90
10968;DHT22;5536;49.602;10.980;2023-04-20T15:11:13;10.70;99.90
10968;DHT22;5536;49.602;10.980;2023-04-20T15:13:40;10.80;99.90
10968;DHT22;5536;49.602;10.980;2023-04-20T15:16:09;10.90;99.90
10968;DHT22;5536;49.602;10.980;2023-04-20T15:18:36;10.90;99.90
10968;DHT22;5536;49.602;10.980;2023-04-20T15:21:04;10.80;99.90
10968;DHT22;5536;49.602;10.980;2023-04-20T15:23:33;10.80;99.90
10968;DHT22;5536;49.602;10.980;2023-04-20T15:25:59;10.80;99.90
10968;DHT22;5536;49.602;10.980;2023-04-20T15:28:26;10.80;99.90
10968;DHT22;5536;49.602;10.980;2023-04-20T15:30:53;10.80;99.90
10968;DHT22;5536;49.602;10.980;2023-04-20T15:33:22;10.80;99.90
10968;DHT22;5536;49.602;10.980;2023-04-20T15:35:49;10.70;99.90
10968;DHT22;5536;49.602;10.980;2023-04-20T15:38:16;10.80;99.90
10968;DHT22;5536;49.602;10.980;2023-04-20T15:40:43;10.80;99.90
10968;DHT22;5536;49.602;10.980;2023-04-20T15:43:11;10.90;99.90
10968;DHT22;5536;49.602;10.980;2023-04-20T15:45:38;11.00;99.90